Flight Track Log - Related Links

Times and Time Zones

All times are in EDT time to prevent confusion due to time zone crossing. See the CWC440 flight status page for this flight to view local times or setup timezone preferences in your user account.

Time Position Orientation Groundspeed Altitude Reporting Facility
EDT Latitude Longitude Course Direction KTS MPH feet Rate Location/Type
Sat 09:03:00 AM 25.7954 -80.2901 345° North  Level Estimated
Sat 09:04:00 AM 25.7954 -80.2901 318° Northwest  Level Estimated
Sat 09:05:00 AM 25.7954 -80.2901 318° Northwest  Level Estimated
Sat 09:05:18 AM 23.2539 -78.8828 318° Northwest 497 572 34,000  Level Miami Center
Sat 09:06:00 AM 25.7954 -80.2901 318° Northwest  Level Estimated
Sat 09:06:18 AM 23.3558 -78.9092 347° North 485 558 34,000  Level Miami Center
Sat 09:07:00 AM 25.7954 -80.2901 318° Northwest  Level Estimated
Sat 09:07:18 AM 23.5036 -78.9478 347° North 474 545 34,000  Level Miami Center
Sat 09:08:00 AM 25.7954 -80.2901 318° Northwest  Level Estimated
Sat 09:08:18 AM 23.6411 -78.9819 347° North 494 568 34,000  Level Miami Center
Sat 09:09:00 AM 25.7954 -80.2901 318° Northwest  Level Estimated
Sat 09:09:18 AM 23.7700 -79.0158 346° North 489 563 34,000  Level Miami Center
Sat 09:10:00 AM 25.7954 -80.2901 318° Northwest  Level Estimated
Sat 09:10:18 AM 23.9014 -79.0475 348° North 484 557 33,900  Level Miami Center
Sat 09:11:18 AM 24.0325 -79.0772 348° North 489 563 33,900 50 Level Miami Center
Sat 09:12:18 AM 24.1636 -79.1136 346° North 483 556 34,000 -850 Climbing Miami Center
Sat 09:13:18 AM 24.2922 -79.1775 336° Northwest 491 565 32,200 -2,150 Descending Miami Center
Sat 09:14:18 AM 24.4186 -79.2369 337° Northwest 491 565 29,700 -2,300 Descending Miami Center
Sat 09:15:18 AM 24.5389 -79.3008 334° Northwest 491 565 27,600 -2,100 Descending Miami Center
Sat 09:16:18 AM 24.6592 -79.3603 336° Northwest 484 557 25,500 -2,150 Descending Miami Center
Sat 09:17:18 AM 24.7708 -79.4175 335° Northwest 457 526 23,300 -2,200 Descending Miami Center
Sat 09:18:18 AM 24.8828 -79.4703 337° Northwest 444 511 21,100 -2,200 Descending Miami Center
Sat 09:19:18 AM 24.9864 -79.5253 334° Northwest 423 487 18,900 -2,150 Descending Miami Center
Sat 09:20:18 AM 25.0897 -79.5756 336° Northwest 412 474 16,800 -2,100 Descending Miami Center
Sat 09:21:18 AM 25.1806 -79.6419 327° Northwest 398 458 14,700 -2,050 Descending Miami Center
Sat 09:22:18 AM 25.2606 -79.7242 317° Northwest 391 450 12,700 -1,733 Descending Miami Center
Sat 09:22:48 AM 25.3033 -79.7756 313° West 368 423 12,100 -700 Descending Miami Center
Sat 09:23:18 AM 25.3239 -79.7922 324° Northwest 370 426 12,000  Descending Miami Center
Sat 09:23:49 AM 25.3667 -79.8417 314° West 301 346 12,100 -196 Climbing Miami Center
Sat 09:24:50 AM 25.4367 -79.8961 325° Northwest 307 353 11,700 -938 Descending Miami Center
Sat 09:25:57 AM 25.5281 -79.9169 348° North 298 343 10,100 -1,426 Descending Miami Center
Sat 09:26:52 AM 25.5989 -79.9278 352° North 296 341 8,800 -1,525 Descending Miami Center
Sat 09:27:59 AM 25.6928 -79.9325 357° North 295 339 7,000 -1,500 Descending Miami Center
Sat 09:29:00 AM 25.7742 -79.9461 351° North 284 327 5,600 -1,426 Descending Miami Center
Sat 09:30:01 AM 25.8169 -79.9936 315° West 251 289 4,100 -1,078 Descending Miami Center
Sat 09:31:08 AM 25.8069 -80.0717 262° West 206 237 3,300 -750 Descending Miami Center
Sat 09:32:09 AM 25.8078 -80.1294 271° West 177 204 2,500 -844 Descending Miami Center
Sat 09:33:16 AM 25.8022 -80.1869 264° West 163 188 1,500 -787 Descending Miami Center
Sat 09:34:11 AM 25.8014 -80.2283 269° West 153 176 900 -655 Descending Miami Center
Sat 09:36:00 AM 25.7954 -80.2901 254° West  Level Estimated
Sat 09:43:00 AM 25.7954 -80.2901 77° East  Level Estimated

Login

Don't have an account? Register now (free) for customized features, flight alerts, and more!